KEGE

Eagle County Regional Airport

Eagle, Colorado, USA
METAR KEGE 190456Z AUTO 08007KT 10SM CLR 15/M02 A3010 RMK AO2 SLP135 T01501022 PNO $
Observed Flight Rules
Sep-19 @ 04:56 UTC (18 minutes ago) Visual Flight Rules
Wind Visibility Clouds
80° at 7 knots 10 miles
  • Clear skies
Temperatures Readings
Current 15°C / 59°F
Dewpoint -2°C / 28°F
Humidity 31%
Altimeter 30.1" Hg
Pressure 1013.5 hPa
Elevation 1993
METAR KEGE 190456Z AUTO 08007KT 10SM CLR 15/M02 A3010 RMK AO2 SLP135 T01501022 PNO $
Observed Flight Rules
Sep-19 @ 04:56 UTC
(18 minutes ago)
VFR
Wind Visibility
80° at 7 knots 10 miles
Clouds
  • Clear skies
Temperature Dewpoint
15°C / 59°F -2°C / 28°F
Humidity Altimeter Pressure
31% 30.1" Hg 1013.5 hPa